sensor_id;sensor_type;location;lat;lon;timestamp;temperature;humidity
44767;DHT22;30487;48.716;9.272;2023-04-06T00:00:56;5.10;69.50
44767;DHT22;30487;48.716;9.272;2023-04-06T00:03:21;5.10;68.60
44767;DHT22;30487;48.716;9.272;2023-04-06T00:05:47;5.10;68.00
44767;DHT22;30487;48.716;9.272;2023-04-06T00:08:13;5.10;68.00
44767;DHT22;30487;48.716;9.272;2023-04-06T00:10:39;5.10;68.60
44767;DHT22;30487;48.716;9.272;2023-04-06T00:13:05;5.10;68.90
44767;DHT22;30487;48.716;9.272;2023-04-06T00:15:31;5.10;68.60
44767;DHT22;30487;48.716;9.272;2023-04-06T00:17:57;5.10;68.40
44767;DHT22;30487;48.716;9.272;2023-04-06T00:20:22;5.20;68.30
44767;DHT22;30487;48.716;9.272;2023-04-06T00:22:48;5.10;68.20
44767;DHT22;30487;48.716;9.272;2023-04-06T00:25:14;5.10;68.60
44767;DHT22;30487;48.716;9.272;2023-04-06T00:27:40;5.10;68.40
44767;DHT22;30487;48.716;9.272;2023-04-06T00:30:07;5.00;69.00
44767;DHT22;30487;48.716;9.272;2023-04-06T00:32:34;5.00;69.20
44767;DHT22;30487;48.716;9.272;2023-04-06T00:35:05;5.10;69.20
44767;DHT22;30487;48.716;9.272;2023-04-06T00:37:31;5.00;69.60
44767;DHT22;30487;48.716;9.272;2023-04-06T00:39:57;5.00;69.80
44767;DHT22;30487;48.716;9.272;2023-04-06T00:42:23;4.90;70.00
44767;DHT22;30487;48.716;9.272;2023-04-06T00:44:56;5.00;70.30
44767;DHT22;30487;48.716;9.272;2023-04-06T00:47:22;5.00;70.40
44767;DHT22;30487;48.716;9.272;2023-04-06T00:49:48;4.90;70.80
44767;DHT22;30487;48.716;9.272;2023-04-06T00:52:14;4.80;71.20
44767;DHT22;30487;48.716;9.272;2023-04-06T00:54:40;4.90;71.20
44767;DHT22;30487;48.716;9.272;2023-04-06T00:57:06;4.90;71.30
44767;DHT22;30487;48.716;9.272;2023-04-06T00:59:32;4.80;71.50
44767;DHT22;30487;48.716;9.272;2023-04-06T01:01:57;4.80;71.90
44767;DHT22;30487;48.716;9.272;2023-04-06T01:04:23;4.80;71.70
44767;DHT22;30487;48.716;9.272;2023-04-06T01:06:49;4.90;72.30
44767;DHT22;30487;48.716;9.272;2023-04-06T01:09:16;4.80;71.70
44767;DHT22;30487;48.716;9.272;2023-04-06T01:11:42;4.80;71.60
44767;DHT22;30487;48.716;9.272;2023-04-06T01:14:07;4.80;71.80
44767;DHT22;30487;48.716;9.272;2023-04-06T01:16:34;4.70;72.10
44767;DHT22;30487;48.716;9.272;2023-04-06T01:18:59;4.60;72.70
44767;DHT22;30487;48.716;9.272;2023-04-06T01:21:25;4.50;72.70
44767;DHT22;30487;48.716;9.272;2023-04-06T01:23:51;4.60;72.80
44767;DHT22;30487;48.716;9.272;2023-04-06T01:26:17;4.70;72.40
44767;DHT22;30487;48.716;9.272;2023-04-06T01:28:43;4.60;72.70
44767;DHT22;30487;48.716;9.272;2023-04-06T01:31:10;4.50;73.00
44767;DHT22;30487;48.716;9.272;2023-04-06T01:33:35;4.40;73.50
44767;DHT22;30487;48.716;9.272;2023-04-06T01:36:02;4.10;74.20
44767;DHT22;30487;48.716;9.272;2023-04-06T01:38:28;4.00;75.10
44767;DHT22;30487;48.716;9.272;2023-04-06T01:40:54;4.00;75.50
44767;DHT22;30487;48.716;9.272;2023-04-06T01:43:20;4.10;75.20
44767;DHT22;30487;48.716;9.272;2023-04-06T01:45:46;4.10;75.50
44767;DHT22;30487;48.716;9.272;2023-04-06T01:48:11;4.10;75.30
44767;DHT22;30487;48.716;9.272;2023-04-06T01:50:37;4.10;74.60
44767;DHT22;30487;48.716;9.272;2023-04-06T01:53:02;4.10;74.50
44767;DHT22;30487;48.716;9.272;2023-04-06T01:55:28;4.00;75.20
44767;DHT22;30487;48.716;9.272;2023-04-06T01:57:54;3.90;75.60
44767;DHT22;30487;48.716;9.272;2023-04-06T02:00:19;3.80;76.10
44767;DHT22;30487;48.716;9.272;2023-04-06T02:02:45;3.80;76.60
44767;DHT22;30487;48.716;9.272;2023-04-06T02:05:10;3.80;76.70
44767;DHT22;30487;48.716;9.272;2023-04-06T02:07:36;3.70;77.10
44767;DHT22;30487;48.716;9.272;2023-04-06T02:10:02;3.70;77.40
44767;DHT22;30487;48.716;9.272;2023-04-06T02:12:28;3.70;77.50
44767;DHT22;30487;48.716;9.272;2023-04-06T02:14:54;3.60;77.90
44767;DHT22;30487;48.716;9.272;2023-04-06T02:17:19;3.60;78.20
44767;DHT22;30487;48.716;9.272;2023-04-06T02:19:45;3.70;78.10
44767;DHT22;30487;48.716;9.272;2023-04-06T02:22:11;3.80;78.10
44767;DHT22;30487;48.716;9.272;2023-04-06T02:24:37;3.70;78.40
44767;DHT22;30487;48.716;9.272;2023-04-06T02:27:02;3.70;78.50
44767;DHT22;30487;48.716;9.272;2023-04-06T02:29:28;3.70;78.30
44767;DHT22;30487;48.716;9.272;2023-04-06T02:31:54;3.80;78.20
44767;DHT22;30487;48.716;9.272;2023-04-06T02:34:19;3.80;78.10
44767;DHT22;30487;48.716;9.272;2023-04-06T02:36:46;3.80;78.10
44767;DHT22;30487;48.716;9.272;2023-04-06T02:39:12;3.70;78.30
44767;DHT22;30487;48.716;9.272;2023-04-06T02:41:38;3.60;78.50
44767;DHT22;30487;48.716;9.272;2023-04-06T02:44:07;3.60;78.90
44767;DHT22;30487;48.716;9.272;2023-04-06T02:46:34;3.50;79.30
44767;DHT22;30487;48.716;9.272;2023-04-06T02:48:59;3.50;79.30
44767;DHT22;30487;48.716;9.272;2023-04-06T02:51:26;3.50;79.50
44767;DHT22;30487;48.716;9.272;2023-04-06T02:53:52;3.50;79.50
44767;DHT22;30487;48.716;9.272;2023-04-06T02:56:18;3.50;79.40
44767;DHT22;30487;48.716;9.272;2023-04-06T02:58:43;3.50;79.50
44767;DHT22;30487;48.716;9.272;2023-04-06T03:01:09;3.40;79.60
44767;DHT22;30487;48.716;9.272;2023-04-06T03:03:35;3.30;79.90
44767;DHT22;30487;48.716;9.272;2023-04-06T03:06:00;3.30;80.00
44767;DHT22;30487;48.716;9.272;2023-04-06T03:08:26;3.30;80.10
44767;DHT22;30487;48.716;9.272;2023-04-06T03:10:52;3.20;80.30
44767;DHT22;30487;48.716;9.272;2023-04-06T03:13:17;3.20;80.80
44767;DHT22;30487;48.716;9.272;2023-04-06T03:15:43;3.10;81.10
44767;DHT22;30487;48.716;9.272;2023-04-06T03:18:08;3.10;81.30
44767;DHT22;30487;48.716;9.272;2023-04-06T03:20:34;3.10;81.40
44767;DHT22;30487;48.716;9.272;2023-04-06T03:22:59;3.10;81.30
44767;DHT22;30487;48.716;9.272;2023-04-06T03:25:25;3.10;81.30
44767;DHT22;30487;48.716;9.272;2023-04-06T03:27:51;3.10;81.30
44767;DHT22;30487;48.716;9.272;2023-04-06T03:30:17;3.10;81.30
44767;DHT22;30487;48.716;9.272;2023-04-06T03:32:44;3.10;81.20
44767;DHT22;30487;48.716;9.272;2023-04-06T03:35:09;3.00;81.30
44767;DHT22;30487;48.716;9.272;2023-04-06T03:37:35;3.10;81.60
44767;DHT22;30487;48.716;9.272;2023-04-06T03:40:02;3.00;81.80
44767;DHT22;30487;48.716;9.272;2023-04-06T03:42:28;3.00;81.80
44767;DHT22;30487;48.716;9.272;2023-04-06T03:44:53;3.00;82.20
44767;DHT22;30487;48.716;9.272;2023-04-06T03:47:19;3.00;82.70
44767;DHT22;30487;48.716;9.272;2023-04-06T03:49:45;2.90;83.10
44767;DHT22;30487;48.716;9.272;2023-04-06T03:52:11;2.90;83.10
44767;DHT22;30487;48.716;9.272;2023-04-06T03:54:37;3.00;82.50
44767;DHT22;30487;48.716;9.272;2023-04-06T03:57:03;3.10;82.60
44767;DHT22;30487;48.716;9.272;2023-04-06T03:59:29;3.00;82.90
44767;DHT22;30487;48.716;9.272;2023-04-06T04:01:55;2.90;83.40
44767;DHT22;30487;48.716;9.272;2023-04-06T04:04:20;2.90;83.90
44767;DHT22;30487;48.716;9.272;2023-04-06T04:06:46;2.80;84.30
44767;DHT22;30487;48.716;9.272;2023-04-06T04:09:12;2.70;84.80
44767;DHT22;30487;48.716;9.272;2023-04-06T04:11:37;2.70;85.20
44767;DHT22;30487;48.716;9.272;2023-04-06T04:14:03;2.70;85.50
44767;DHT22;30487;48.716;9.272;2023-04-06T04:16:29;2.70;85.70
44767;DHT22;30487;48.716;9.272;2023-04-06T04:18:55;2.70;86.00
44767;DHT22;30487;48.716;9.272;2023-04-06T04:21:20;2.70;85.90
44767;DHT22;30487;48.716;9.272;2023-04-06T04:23:46;2.80;86.10
44767;DHT22;30487;48.716;9.272;2023-04-06T04:26:12;2.80;86.10
44767;DHT22;30487;48.716;9.272;2023-04-06T04:28:37;2.80;86.00
44767;DHT22;30487;48.716;9.272;2023-04-06T04:31:03;2.80;86.00
44767;DHT22;30487;48.716;9.272;2023-04-06T04:33:28;2.70;86.90
44767;DHT22;30487;48.716;9.272;2023-04-06T04:35:54;2.70;86.90
44767;DHT22;30487;48.716;9.272;2023-04-06T04:38:20;2.60;87.00
44767;DHT22;30487;48.716;9.272;2023-04-06T04:40:45;2.60;87.00
44767;DHT22;30487;48.716;9.272;2023-04-06T04:43:11;2.70;87.10
44767;DHT22;30487;48.716;9.272;2023-04-06T04:45:37;2.70;87.10
44767;DHT22;30487;48.716;9.272;2023-04-06T04:48:02;2.80;86.80
44767;DHT22;30487;48.716;9.272;2023-04-06T04:50:30;2.80;86.60
44767;DHT22;30487;48.716;9.272;2023-04-06T04:52:55;2.70;86.90
44767;DHT22;30487;48.716;9.272;2023-04-06T04:55:21;2.60;87.10
44767;DHT22;30487;48.716;9.272;2023-04-06T04:57:47;2.50;87.90
44767;DHT22;30487;48.716;9.272;2023-04-06T05:00:13;2.50;88.20
44767;DHT22;30487;48.716;9.272;2023-04-06T05:02:38;2.50;88.30
44767;DHT22;30487;48.716;9.272;2023-04-06T05:05:05;2.50;88.30
44767;DHT22;30487;48.716;9.272;2023-04-06T05:07:30;2.50;88.40
44767;DHT22;30487;48.716;9.272;2023-04-06T05:09:56;2.50;88.10
44767;DHT22;30487;48.716;9.272;2023-04-06T05:12:22;2.60;88.00
44767;DHT22;30487;48.716;9.272;2023-04-06T05:14:48;2.60;88.00
44767;DHT22;30487;48.716;9.272;2023-04-06T05:17:13;2.60;87.70
44767;DHT22;30487;48.716;9.272;2023-04-06T05:19:39;2.60;87.90
44767;DHT22;30487;48.716;9.272;2023-04-06T05:22:05;2.50;88.20
44767;DHT22;30487;48.716;9.272;2023-04-06T05:24:30;2.40;88.50
44767;DHT22;30487;48.716;9.272;2023-04-06T05:26:56;2.50;88.60
44767;DHT22;30487;48.716;9.272;2023-04-06T05:29:22;2.60;88.20
44767;DHT22;30487;48.716;9.272;2023-04-06T05:31:47;2.70;87.90
44767;DHT22;30487;48.716;9.272;2023-04-06T05:34:13;2.80;87.50
44767;DHT22;30487;48.716;9.272;2023-04-06T05:36:39;2.90;87.20
44767;DHT22;30487;48.716;9.272;2023-04-06T05:39:06;2.90;87.00
44767;DHT22;30487;48.716;9.272;2023-04-06T05:41:32;2.90;87.20
44767;DHT22;30487;48.716;9.272;2023-04-06T05:43:58;3.00;88.80
44767;DHT22;30487;48.716;9.272;2023-04-06T05:46:23;3.10;89.70
44767;DHT22;30487;48.716;9.272;2023-04-06T05:48:49;3.10;88.10
44767;DHT22;30487;48.716;9.272;2023-04-06T05:51:14;3.10;87.00
44767;DHT22;30487;48.716;9.272;2023-04-06T05:53:40;3.20;86.80
44767;DHT22;30487;48.716;9.272;2023-04-06T05:56:06;3.30;86.40
44767;DHT22;30487;48.716;9.272;2023-04-06T05:58:32;3.30;85.90
44767;DHT22;30487;48.716;9.272;2023-04-06T06:01:01;3.40;85.40
44767;DHT22;30487;48.716;9.272;2023-04-06T06:03:26;3.30;85.10
44767;DHT22;30487;48.716;9.272;2023-04-06T06:05:52;3.30;85.10
44767;DHT22;30487;48.716;9.272;2023-04-06T06:08:18;3.40;85.20
44767;DHT22;30487;48.716;9.272;2023-04-06T06:10:44;3.60;84.30
44767;DHT22;30487;48.716;9.272;2023-04-06T06:13:09;3.70;83.80
44767;DHT22;30487;48.716;9.272;2023-04-06T06:15:35;3.80;83.30
44767;DHT22;30487;48.716;9.272;2023-04-06T06:18:00;3.80;83.20
44767;DHT22;30487;48.716;9.272;2023-04-06T06:20:27;3.90;83.20
44767;DHT22;30487;48.716;9.272;2023-04-06T06:22:52;3.90;83.40
44767;DHT22;30487;48.716;9.272;2023-04-06T06:25:18;3.80;83.70
44767;DHT22;30487;48.716;9.272;2023-04-06T06:27:44;4.00;83.60
44767;DHT22;30487;48.716;9.272;2023-04-06T06:30:10;4.10;85.90
44767;DHT22;30487;48.716;9.272;2023-04-06T06:32:35;4.20;86.90
44767;DHT22;30487;48.716;9.272;2023-04-06T06:35:01;4.40;84.20
44767;DHT22;30487;48.716;9.272;2023-04-06T06:37:28;4.40;83.50
44767;DHT22;30487;48.716;9.272;2023-04-06T06:39:53;4.40;83.70
44767;DHT22;30487;48.716;9.272;2023-04-06T06:42:19;4.50;84.10
44767;DHT22;30487;48.716;9.272;2023-04-06T06:44:44;4.60;83.90
44767;DHT22;30487;48.716;9.272;2023-04-06T06:47:10;4.70;83.70
44767;DHT22;30487;48.716;9.272;2023-04-06T06:49:36;4.80;83.40
44767;DHT22;30487;48.716;9.272;2023-04-06T06:52:01;4.90;83.80
44767;DHT22;30487;48.716;9.272;2023-04-06T06:54:27;5.10;83.60
44767;DHT22;30487;48.716;9.272;2023-04-06T06:56:52;5.30;83.60
44767;DHT22;30487;48.716;9.272;2023-04-06T06:59:19;5.40;83.00
44767;DHT22;30487;48.716;9.272;2023-04-06T07:01:46;5.50;82.70
44767;DHT22;30487;48.716;9.272;2023-04-06T07:04:12;5.60;82.30
44767;DHT22;30487;48.716;9.272;2023-04-06T07:06:37;5.80;81.30
44767;DHT22;30487;48.716;9.272;2023-04-06T07:09:03;5.90;81.10
44767;DHT22;30487;48.716;9.272;2023-04-06T07:11:29;5.90;80.90
44767;DHT22;30487;48.716;9.272;2023-04-06T07:13:55;6.00;80.90
44767;DHT22;30487;48.716;9.272;2023-04-06T07:16:21;6.20;80.70
44767;DHT22;30487;48.716;9.272;2023-04-06T07:18:47;6.30;80.00
44767;DHT22;30487;48.716;9.272;2023-04-06T07:21:12;6.40;80.00
44767;DHT22;30487;48.716;9.272;2023-04-06T07:23:38;6.40;80.40
44767;DHT22;30487;48.716;9.272;2023-04-06T07:26:04;6.50;80.30
44767;DHT22;30487;48.716;9.272;2023-04-06T07:28:30;6.70;80.20
44767;DHT22;30487;48.716;9.272;2023-04-06T07:30:55;7.00;80.00
44767;DHT22;30487;48.716;9.272;2023-04-06T07:33:21;7.20;79.50
44767;DHT22;30487;48.716;9.272;2023-04-06T07:35:47;7.50;78.90
44767;DHT22;30487;48.716;9.272;2023-04-06T07:38:13;7.80;78.30
44767;DHT22;30487;48.716;9.272;2023-04-06T07:40:38;7.90;77.50
44767;DHT22;30487;48.716;9.272;2023-04-06T07:43:04;8.10;76.90
44767;DHT22;30487;48.716;9.272;2023-04-06T07:45:30;8.20;75.60
44767;DHT22;30487;48.716;9.272;2023-04-06T07:47:56;8.30;76.30
44767;DHT22;30487;48.716;9.272;2023-04-06T07:50:21;8.40;76.00
44767;DHT22;30487;48.716;9.272;2023-04-06T07:52:47;8.50;75.30
44767;DHT22;30487;48.716;9.272;2023-04-06T07:55:14;8.60;75.00
44767;DHT22;30487;48.716;9.272;2023-04-06T07:57:40;8.80;75.30
44767;DHT22;30487;48.716;9.272;2023-04-06T08:00:06;9.00;75.00
44767;DHT22;30487;48.716;9.272;2023-04-06T08:02:32;9.10;73.60
44767;DHT22;30487;48.716;9.272;2023-04-06T08:04:57;9.10;72.80
44767;DHT22;30487;48.716;9.272;2023-04-06T08:07:23;9.20;74.00
44767;DHT22;30487;48.716;9.272;2023-04-06T08:09:49;9.40;74.30
44767;DHT22;30487;48.716;9.272;2023-04-06T08:12:15;9.60;72.80
44767;DHT22;30487;48.716;9.272;2023-04-06T08:14:41;9.70;72.50
44767;DHT22;30487;48.716;9.272;2023-04-06T08:17:06;9.80;71.90
44767;DHT22;30487;48.716;9.272;2023-04-06T08:19:32;9.80;71.80
44767;DHT22;30487;48.716;9.272;2023-04-06T08:21:58;10.10;71.30
44767;DHT22;30487;48.716;9.272;2023-04-06T08:24:23;10.30;71.80
44767;DHT22;30487;48.716;9.272;2023-04-06T08:26:49;10.60;72.30
44767;DHT22;30487;48.716;9.272;2023-04-06T08:29:16;10.90;70.20
44767;DHT22;30487;48.716;9.272;2023-04-06T08:31:41;11.10;69.40
44767;DHT22;30487;48.716;9.272;2023-04-06T08:34:07;11.30;67.70
44767;DHT22;30487;48.716;9.272;2023-04-06T08:36:33;11.20;67.00
44767;DHT22;30487;48.716;9.272;2023-04-06T08:38:59;11.40;68.00
44767;DHT22;30487;48.716;9.272;2023-04-06T08:41:25;11.70;65.40
44767;DHT22;30487;48.716;9.272;2023-04-06T08:43:59;11.70;65.40
44767;DHT22;30487;48.716;9.272;2023-04-06T08:46:26;11.80;64.70
44767;DHT22;30487;48.716;9.272;2023-04-06T08:48:56;12.20;64.30
44767;DHT22;30487;48.716;9.272;2023-04-06T08:51:26;12.40;63.70
44767;DHT22;30487;48.716;9.272;2023-04-06T08:53:53;12.50;64.10
44767;DHT22;30487;48.716;9.272;2023-04-06T08:56:23;12.80;66.30
44767;DHT22;30487;48.716;9.272;2023-04-06T08:58:49;13.10;61.10
44767;DHT22;30487;48.716;9.272;2023-04-06T09:01:20;13.10;61.00
44767;DHT22;30487;48.716;9.272;2023-04-06T09:03:46;12.90;61.10
44767;DHT22;30487;48.716;9.272;2023-04-06T09:06:13;13.30;61.40
44767;DHT22;30487;48.716;9.272;2023-04-06T09:08:40;13.70;60.50
44767;DHT22;30487;48.716;9.272;2023-04-06T09:11:07;13.70;59.30
44767;DHT22;30487;48.716;9.272;2023-04-06T09:16:16;14.50;58.80
44767;DHT22;30487;48.716;9.272;2023-04-06T09:18:42;14.80;58.70
44767;DHT22;30487;48.716;9.272;2023-04-06T09:21:08;15.00;62.50
44767;DHT22;30487;48.716;9.272;2023-04-06T09:23:35;15.50;67.40
44767;DHT22;30487;48.716;9.272;2023-04-06T09:26:12;15.70;60.10
44767;DHT22;30487;48.716;9.272;2023-04-06T09:28:59;16.20;57.30
44767;DHT22;30487;48.716;9.272;2023-04-06T09:31:31;16.30;55.60
44767;DHT22;30487;48.716;9.272;2023-04-06T09:34:00;16.20;59.90
44767;DHT22;30487;48.716;9.272;2023-04-06T09:36:33;16.40;59.10
44767;DHT22;30487;48.716;9.272;2023-04-06T09:39:00;16.50;57.60
44767;DHT22;30487;48.716;9.272;2023-04-06T09:41:34;16.70;53.60
44767;DHT22;30487;48.716;9.272;2023-04-06T09:44:10;16.70;53.20
44767;DHT22;30487;48.716;9.272;2023-04-06T09:46:37;16.70;54.00
44767;DHT22;30487;48.716;9.272;2023-04-06T09:49:05;16.60;54.30
44767;DHT22;30487;48.716;9.272;2023-04-06T09:51:39;16.30;54.20
44767;DHT22;30487;48.716;9.272;2023-04-06T09:54:06;16.50;54.30
44767;DHT22;30487;48.716;9.272;2023-04-06T09:56:39;17.00;52.70
44767;DHT22;30487;48.716;9.272;2023-04-06T09:59:14;17.20;55.50
44767;DHT22;30487;48.716;9.272;2023-04-06T10:01:44;16.60;58.10
44767;DHT22;30487;48.716;9.272;2023-04-06T10:06:50;17.00;54.30
44767;DHT22;30487;48.716;9.272;2023-04-06T10:09:18;17.10;53.50
44767;DHT22;30487;48.716;9.272;2023-04-06T10:11:50;17.40;52.80
44767;DHT22;30487;48.716;9.272;2023-04-06T10:14:16;17.80;49.50
44767;DHT22;30487;48.716;9.272;2023-04-06T10:16:42;17.70;47.90
44767;DHT22;30487;48.716;9.272;2023-04-06T10:19:14;17.90;47.90
44767;DHT22;30487;48.716;9.272;2023-04-06T10:21:45;17.50;48.90
44767;DHT22;30487;48.716;9.272;2023-04-06T10:24:13;17.30;48.00
44767;DHT22;30487;48.716;9.272;2023-04-06T10:26:39;17.30;49.30
44767;DHT22;30487;48.716;9.272;2023-04-06T10:29:05;17.90;45.70
44767;DHT22;30487;48.716;9.272;2023-04-06T10:31:31;18.00;44.60
44767;DHT22;30487;48.716;9.272;2023-04-06T10:34:01;17.70;45.80
44767;DHT22;30487;48.716;9.272;2023-04-06T10:36:32;17.50;46.80
44767;DHT22;30487;48.716;9.272;2023-04-06T10:39:03;17.90;47.90
44767;DHT22;30487;48.716;9.272;2023-04-06T10:41:43;18.50;46.90
44767;DHT22;30487;48.716;9.272;2023-04-06T10:44:30;18.70;44.00
44767;DHT22;30487;48.716;9.272;2023-04-06T10:46:57;17.30;43.50
44767;DHT22;30487;48.716;9.272;2023-04-06T10:49:24;16.60;45.30
44767;DHT22;30487;48.716;9.272;2023-04-06T10:51:56;16.80;46.90
44767;DHT22;30487;48.716;9.272;2023-04-06T10:54:24;17.10;48.30
44767;DHT22;30487;48.716;9.272;2023-04-06T10:56:50;17.20;49.80
44767;DHT22;30487;48.716;9.272;2023-04-06T10:59:20;17.40;45.50
44767;DHT22;30487;48.716;9.272;2023-04-06T11:01:46;17.10;44.80
44767;DHT22;30487;48.716;9.272;2023-04-06T11:04:16;16.90;45.60
44767;DHT22;30487;48.716;9.272;2023-04-06T11:06:47;17.00;45.20
44767;DHT22;30487;48.716;9.272;2023-04-06T11:09:23;16.60;44.90
44767;DHT22;30487;48.716;9.272;2023-04-06T11:11:50;17.00;46.00
44767;DHT22;30487;48.716;9.272;2023-04-06T11:14:15;17.30;46.50
44767;DHT22;30487;48.716;9.272;2023-04-06T11:16:41;17.60;46.00
44767;DHT22;30487;48.716;9.272;2023-04-06T11:19:07;17.80;47.10
44767;DHT22;30487;48.716;9.272;2023-04-06T11:24:15;18.60;43.80
44767;DHT22;30487;48.716;9.272;2023-04-06T11:26:49;18.80;40.30
44767;DHT22;30487;48.716;9.272;2023-04-06T11:31:47;18.20;40.30
44767;DHT22;30487;48.716;9.272;2023-04-06T11:34:20;17.50;39.80
44767;DHT22;30487;48.716;9.272;2023-04-06T11:36:47;17.60;42.50
44767;DHT22;30487;48.716;9.272;2023-04-06T11:39:18;18.40;44.90
44767;DHT22;30487;48.716;9.272;2023-04-06T11:41:48;19.20;49.20
44767;DHT22;30487;48.716;9.272;2023-04-06T11:44:14;18.90;45.90
44767;DHT22;30487;48.716;9.272;2023-04-06T11:46:39;19.50;43.70
44767;DHT22;30487;48.716;9.272;2023-04-06T11:49:05;19.80;42.90
44767;DHT22;30487;48.716;9.272;2023-04-06T11:51:35;20.40;43.40
44767;DHT22;30487;48.716;9.272;2023-04-06T11:54:01;20.60;42.50
44767;DHT22;30487;48.716;9.272;2023-04-06T11:56:29;20.90;40.70
44767;DHT22;30487;48.716;9.272;2023-04-06T11:58:56;21.30;39.80
44767;DHT22;30487;48.716;9.272;2023-04-06T12:01:23;21.40;41.50
44767;DHT22;30487;48.716;9.272;2023-04-06T12:03:49;20.80;38.90
44767;DHT22;30487;48.716;9.272;2023-04-06T12:06:15;21.30;37.90
44767;DHT22;30487;48.716;9.272;2023-04-06T12:08:41;21.10;37.40
44767;DHT22;30487;48.716;9.272;2023-04-06T12:11:06;20.90;37.20
44767;DHT22;30487;48.716;9.272;2023-04-06T12:13:32;20.20;37.90
44767;DHT22;30487;48.716;9.272;2023-04-06T12:15:58;20.30;39.20
44767;DHT22;30487;48.716;9.272;2023-04-06T12:18:24;20.20;38.10
44767;DHT22;30487;48.716;9.272;2023-04-06T12:20:51;20.80;37.30
44767;DHT22;30487;48.716;9.272;2023-04-06T12:23:17;21.10;37.20
44767;DHT22;30487;48.716;9.272;2023-04-06T12:25:42;21.30;35.60
44767;DHT22;30487;48.716;9.272;2023-04-06T12:28:08;21.10;37.60
44767;DHT22;30487;48.716;9.272;2023-04-06T12:30:36;21.50;37.90
44767;DHT22;30487;48.716;9.272;2023-04-06T12:33:02;21.30;36.50
44767;DHT22;30487;48.716;9.272;2023-04-06T12:35:28;21.40;36.90
44767;DHT22;30487;48.716;9.272;2023-04-06T12:37:53;21.60;37.00
44767;DHT22;30487;48.716;9.272;2023-04-06T12:40:19;21.70;36.40
44767;DHT22;30487;48.716;9.272;2023-04-06T12:42:45;22.20;37.50
44767;DHT22;30487;48.716;9.272;2023-04-06T12:45:12;22.10;36.60
44767;DHT22;30487;48.716;9.272;2023-04-06T12:47:38;22.40;37.10
44767;DHT22;30487;48.716;9.272;2023-04-06T12:50:04;22.30;35.90
44767;DHT22;30487;48.716;9.272;2023-04-06T12:52:31;21.90;36.20
44767;DHT22;30487;48.716;9.272;2023-04-06T12:54:57;22.50;38.60
44767;DHT22;30487;48.716;9.272;2023-04-06T12:57:25;22.50;36.00
44767;DHT22;30487;48.716;9.272;2023-04-06T12:59:51;21.90;36.00
44767;DHT22;30487;48.716;9.272;2023-04-06T13:02:18;21.20;36.10
44767;DHT22;30487;48.716;9.272;2023-04-06T13:04:45;21.70;36.30
44767;DHT22;30487;48.716;9.272;2023-04-06T13:07:11;21.10;36.00
44767;DHT22;30487;48.716;9.272;2023-04-06T13:09:37;21.40;37.40
44767;DHT22;30487;48.716;9.272;2023-04-06T13:12:02;21.20;35.30
44767;DHT22;30487;48.716;9.272;2023-04-06T13:14:28;21.00;35.60
44767;DHT22;30487;48.716;9.272;2023-04-06T13:16:54;21.20;36.30
44767;DHT22;30487;48.716;9.272;2023-04-06T13:19:20;21.30;35.30
44767;DHT22;30487;48.716;9.272;2023-04-06T13:21:45;21.30;36.10
44767;DHT22;30487;48.716;9.272;2023-04-06T13:24:11;21.80;35.80
44767;DHT22;30487;48.716;9.272;2023-04-06T13:26:36;22.10;35.30
44767;DHT22;30487;48.716;9.272;2023-04-06T13:29:02;22.00;35.30
44767;DHT22;30487;48.716;9.272;2023-04-06T13:31:29;21.40;35.30
44767;DHT22;30487;48.716;9.272;2023-04-06T13:33:54;21.40;35.70
44767;DHT22;30487;48.716;9.272;2023-04-06T13:36:20;21.60;37.70
44767;DHT22;30487;48.716;9.272;2023-04-06T13:38:46;21.40;35.90
44767;DHT22;30487;48.716;9.272;2023-04-06T13:41:22;20.80;35.90
44767;DHT22;30487;48.716;9.272;2023-04-06T13:43:48;20.70;36.60
44767;DHT22;30487;48.716;9.272;2023-04-06T13:46:15;21.20;37.70
44767;DHT22;30487;48.716;9.272;2023-04-06T13:48:41;21.00;36.70
44767;DHT22;30487;48.716;9.272;2023-04-06T13:51:13;21.20;36.30
44767;DHT22;30487;48.716;9.272;2023-04-06T13:53:39;20.40;36.00
44767;DHT22;30487;48.716;9.272;2023-04-06T13:56:06;20.00;36.40
44767;DHT22;30487;48.716;9.272;2023-04-06T13:58:32;20.20;37.30
44767;DHT22;30487;48.716;9.272;2023-04-06T14:01:05;20.20;36.00
44767;DHT22;30487;48.716;9.272;2023-04-06T14:03:32;19.60;37.70
44767;DHT22;30487;48.716;9.272;2023-04-06T14:05:58;19.30;38.70
44767;DHT22;30487;48.716;9.272;2023-04-06T14:08:23;19.30;38.10
44767;DHT22;30487;48.716;9.272;2023-04-06T14:10:49;19.10;38.60
44767;DHT22;30487;48.716;9.272;2023-04-06T14:13:15;18.80;37.30
44767;DHT22;30487;48.716;9.272;2023-04-06T14:15:40;18.20;38.00
44767;DHT22;30487;48.716;9.272;2023-04-06T14:18:08;18.10;39.30
44767;DHT22;30487;48.716;9.272;2023-04-06T14:20:34;18.20;39.50
44767;DHT22;30487;48.716;9.272;2023-04-06T14:23:01;18.00;38.20
44767;DHT22;30487;48.716;9.272;2023-04-06T14:25:27;17.60;38.20
44767;DHT22;30487;48.716;9.272;2023-04-06T14:27:52;17.40;39.50
44767;DHT22;30487;48.716;9.272;2023-04-06T14:30:18;17.00;39.40
44767;DHT22;30487;48.716;9.272;2023-04-06T14:32:44;16.70;39.00
44767;DHT22;30487;48.716;9.272;2023-04-06T14:35:10;16.80;39.40
44767;DHT22;30487;48.716;9.272;2023-04-06T14:37:35;17.00;39.60
44767;DHT22;30487;48.716;9.272;2023-04-06T14:40:04;17.20;39.30
44767;DHT22;30487;48.716;9.272;2023-04-06T14:42:30;17.40;39.10
44767;DHT22;30487;48.716;9.272;2023-04-06T14:44:57;17.50;39.40
44767;DHT22;30487;48.716;9.272;2023-04-06T14:47:22;17.50;40.40
44767;DHT22;30487;48.716;9.272;2023-04-06T14:49:51;17.60;40.20
44767;DHT22;30487;48.716;9.272;2023-04-06T14:52:17;17.40;40.20
44767;DHT22;30487;48.716;9.272;2023-04-06T14:54:42;17.20;39.60
44767;DHT22;30487;48.716;9.272;2023-04-06T14:57:08;17.00;39.60
44767;DHT22;30487;48.716;9.272;2023-04-06T14:59:34;16.90;40.30
44767;DHT22;30487;48.716;9.272;2023-04-06T15:02:01;16.80;40.50
44767;DHT22;30487;48.716;9.272;2023-04-06T15:04:28;16.90;41.10
44767;DHT22;30487;48.716;9.272;2023-04-06T15:06:54;17.20;40.80
44767;DHT22;30487;48.716;9.272;2023-04-06T15:09:23;17.10;40.30
44767;DHT22;30487;48.716;9.272;2023-04-06T15:11:49;17.00;40.30
44767;DHT22;30487;48.716;9.272;2023-04-06T15:14:15;16.90;40.50
44767;DHT22;30487;48.716;9.272;2023-04-06T15:16:40;16.80;40.70
44767;DHT22;30487;48.716;9.272;2023-04-06T15:19:06;16.90;41.00
44767;DHT22;30487;48.716;9.272;2023-04-06T15:21:32;17.00;40.80
44767;DHT22;30487;48.716;9.272;2023-04-06T15:23:58;17.00;40.90
44767;DHT22;30487;48.716;9.272;2023-04-06T15:26:23;17.10;40.60
44767;DHT22;30487;48.716;9.272;2023-04-06T15:28:49;17.00;40.60
44767;DHT22;30487;48.716;9.272;2023-04-06T15:31:19;16.80;39.80
44767;DHT22;30487;48.716;9.272;2023-04-06T15:33:48;16.60;40.30
44767;DHT22;30487;48.716;9.272;2023-04-06T15:36:28;16.60;40.20
44767;DHT22;30487;48.716;9.272;2023-04-06T15:38:56;16.50;40.20
44767;DHT22;30487;48.716;9.272;2023-04-06T15:41:22;16.30;40.00
44767;DHT22;30487;48.716;9.272;2023-04-06T15:43:49;16.40;40.60
44767;DHT22;30487;48.716;9.272;2023-04-06T15:46:18;16.20;40.40